createdAt,value
2019-02-09T00:01:33.045Z,9.90
2019-02-09T00:04:07.404Z,12.03
2019-02-09T00:06:41.693Z,9.65
2019-02-09T00:09:27.647Z,8.33
2019-02-09T00:12:12.786Z,10.55
2019-02-09T00:14:55.535Z,11.83
2019-02-09T00:17:29.652Z,8.90
2019-02-09T00:20:03.822Z,15.72
2019-02-09T00:22:38.019Z,12.70
2019-02-09T00:25:12.472Z,10.25
2019-02-09T00:27:47.579Z,9.70
2019-02-09T00:30:22.042Z,10.10
2019-02-09T00:33:08.268Z,11.08
2019-02-09T00:35:52.970Z,9.40
2019-02-09T00:38:35.991Z,10.18
2019-02-09T00:41:12.123Z,10.13
2019-02-09T00:43:54.865Z,8.88
2019-02-09T00:46:28.754Z,9.53
2019-02-09T00:49:02.546Z,8.68
2019-02-09T00:51:36.668Z,9.13
2019-02-09T00:54:10.383Z,8.73
2019-02-09T00:56:44.460Z,9.40
2019-02-09T00:59:18.504Z,7.87
2019-02-09T01:01:52.733Z,8.70
2019-02-09T01:04:26.757Z,8.55
2019-02-09T01:07:00.680Z,9.40
2019-02-09T01:09:34.516Z,8.98
2019-02-09T01:12:08.623Z,9.38
2019-02-09T01:14:42.803Z,10.60
2019-02-09T01:17:16.850Z,11.03
2019-02-09T01:19:50.858Z,8.63
2019-02-09T01:22:24.715Z,8.88
2019-02-09T01:24:58.505Z,8.48
2019-02-09T01:27:32.538Z,8.25
2019-02-09T01:30:09.648Z,8.75
2019-02-09T01:32:43.785Z,11.43
2019-02-09T01:35:29.722Z,9.55
2019-02-09T01:38:16.395Z,10.40
2019-02-09T01:41:02.145Z,11.88
2019-02-09T01:43:46.332Z,12.03
2019-02-09T01:46:30.297Z,12.00
2019-02-09T01:49:03.700Z,10.53
2019-02-09T01:51:37.592Z,12.15
2019-02-09T01:54:10.956Z,11.75
2019-02-09T01:56:43.988Z,12.60
2019-02-09T01:59:17.414Z,13.28
2019-02-09T02:01:50.920Z,15.83
2019-02-09T02:04:24.667Z,16.90
2019-02-09T02:06:57.821Z,18.40
2019-02-09T02:12:03.784Z,13.40
2019-02-09T02:14:37.261Z,13.20
2019-02-09T02:17:10.804Z,11.40
2019-02-09T02:19:44.544Z,10.70
2019-02-09T02:22:18.088Z,12.50
2019-02-09T02:24:51.655Z,19.92
2019-02-09T02:27:24.896Z,18.23
2019-02-09T02:30:08.529Z,19.87
2019-02-09T02:32:51.619Z,19.25
2019-02-09T02:35:37.622Z,19.85
2019-02-09T02:38:23.094Z,17.95
2019-02-09T02:41:10.122Z,16.48
2019-02-09T02:43:55.944Z,13.85
2019-02-09T02:46:37.972Z,15.32
2019-02-09T02:49:11.418Z,13.88
2019-02-09T02:51:44.744Z,15.00
2019-02-09T02:54:18.166Z,13.78
2019-02-09T02:56:51.625Z,13.72
2019-02-09T02:59:24.798Z,14.53
2019-02-09T03:04:31.249Z,12.93
2019-02-09T03:07:04.668Z,14.98
2019-02-09T03:09:37.768Z,14.35
2019-02-09T03:14:43.156Z,15.25
2019-02-09T03:19:48.316Z,15.58
2019-02-09T03:22:22.609Z,15.08
2019-02-09T03:24:56.961Z,15.75
2019-02-09T03:27:30.550Z,16.37
2019-02-09T03:30:04.052Z,16.05
2019-02-09T03:32:37.814Z,15.13
2019-02-09T03:35:23.621Z,16.27
2019-02-09T03:38:01.564Z,18.67
2019-02-09T03:40:44.257Z,21.10
2019-02-09T03:43:17.684Z,26.25
2019-02-09T03:45:52.260Z,21.80
2019-02-09T03:48:25.828Z,13.55
2019-02-09T03:50:59.356Z,15.58
2019-02-09T03:53:33.198Z,16.48
2019-02-09T03:56:06.522Z,17.92
2019-02-09T03:58:40.078Z,17.65
2019-02-09T04:01:13.407Z,16.73
2019-02-09T04:03:47.079Z,16.42
2019-02-09T04:06:20.746Z,10.63
2019-02-09T04:08:54.199Z,13.72
2019-02-09T04:11:27.545Z,12.45
2019-02-09T04:14:01.203Z,14.00
2019-02-09T04:16:34.320Z,13.05
2019-02-09T04:19:07.809Z,13.00
2019-02-09T04:21:41.231Z,15.38
2019-02-09T04:24:14.674Z,15.90
2019-02-09T04:26:48.132Z,18.55
2019-02-09T04:29:21.595Z,15.18
2019-02-09T04:31:55.116Z,15.58
2019-02-09T04:34:41.183Z,16.12
2019-02-09T04:37:24.981Z,15.15
2019-02-09T04:40:12.155Z,15.72
2019-02-09T04:42:55.462Z,16.45
2019-02-09T04:48:00.852Z,15.85
2019-02-09T04:50:34.459Z,15.32
2019-02-09T04:53:08.002Z,15.18
2019-02-09T04:55:41.795Z,15.10
2019-02-09T04:58:15.218Z,16.62
2019-02-09T05:00:48.737Z,19.05
2019-02-09T05:03:22.384Z,17.65
2019-02-09T05:05:55.416Z,16.95
2019-02-09T05:08:29.414Z,29.70
2019-02-09T05:11:02.944Z,36.45
2019-02-09T05:13:36.536Z,36.93
2019-02-09T05:16:10.068Z,34.48
2019-02-09T05:18:43.531Z,24.10
2019-02-09T05:21:16.963Z,20.82
2019-02-09T05:23:50.547Z,17.52
2019-02-09T05:26:23.951Z,16.25
2019-02-09T05:28:57.318Z,22.05
2019-02-09T05:31:30.960Z,25.20
2019-02-09T05:34:04.895Z,28.55
2019-02-09T05:36:38.028Z,31.23
2019-02-09T05:41:54.766Z,16.93
2019-02-09T05:44:40.035Z,19.07
2019-02-09T05:47:22.810Z,19.40
2019-02-09T05:49:56.487Z,18.12
2019-02-09T05:52:29.862Z,17.65
2019-02-09T05:55:05.031Z,24.12
2019-02-09T05:57:38.384Z,32.98
2019-02-09T06:00:16.436Z,43.90
2019-02-09T06:02:49.911Z,78.33
2019-02-09T06:05:27.062Z,82.02
2019-02-09T06:08:00.739Z,75.32
2019-02-09T06:10:34.583Z,92.88
2019-02-09T06:13:17.255Z,66.80
2019-02-09T06:15:51.912Z,50.25
2019-02-09T06:18:25.730Z,49.77
2019-02-09T06:20:59.590Z,30.23
2019-02-09T06:23:33.452Z,27.55
2019-02-09T06:26:07.073Z,38.45
2019-02-09T06:28:40.284Z,43.60
2019-02-09T06:31:13.856Z,36.85
2019-02-09T06:33:47.425Z,39.03
2019-02-09T06:36:21.595Z,47.38
2019-02-09T06:38:55.893Z,32.38
2019-02-09T06:41:29.507Z,27.67
2019-02-09T06:44:03.061Z,24.60
2019-02-09T06:46:36.435Z,19.87
2019-02-09T06:49:10.123Z,18.37
2019-02-09T06:51:44.037Z,20.05
2019-02-09T06:54:17.340Z,26.48
2019-02-09T06:56:50.603Z,34.53
2019-02-09T06:59:28.366Z,47.55
2019-02-09T07:02:02.759Z,28.12
2019-02-09T07:04:48.279Z,25.25
2019-02-09T07:07:32.602Z,30.02
2019-02-09T07:10:40.150Z,38.45
2019-02-09T07:13:14.571Z,46.90
2019-02-09T07:15:49.382Z,46.95
2019-02-09T07:18:22.986Z,34.58
2019-02-09T07:21:12.956Z,50.35
2019-02-09T07:23:46.605Z,31.62
2019-02-09T07:26:20.452Z,29.50
2019-02-09T07:28:54.104Z,44.03
2019-02-09T07:31:28.187Z,46.37
2019-02-09T07:34:02.198Z,29.40
2019-02-09T07:36:44.423Z,24.37
2019-02-09T07:39:20.199Z,27.10
2019-02-09T07:41:55.649Z,29.70
2019-02-09T07:44:29.447Z,21.80
2019-02-09T07:47:04.118Z,26.95
2019-02-09T07:49:38.274Z,29.25
2019-02-09T07:52:12.538Z,29.87
2019-02-09T07:54:46.532Z,29.02
2019-02-09T07:57:20.520Z,25.77
2019-02-09T07:59:54.942Z,24.47
2019-02-09T08:02:28.801Z,26.20
2019-02-09T08:05:03.531Z,24.20
2019-02-09T08:07:37.615Z,28.38
2019-02-09T08:10:14.294Z,30.48
2019-02-09T08:12:49.292Z,27.27
2019-02-09T08:15:24.909Z,29.42
2019-02-09T08:17:58.577Z,33.63
2019-02-09T08:20:34.073Z,29.30
2019-02-09T08:23:09.418Z,27.93
2019-02-09T08:25:43.992Z,29.67
2019-02-09T08:28:22.820Z,30.05
2019-02-09T08:30:56.959Z,29.00
2019-02-09T08:33:30.616Z,26.40
2019-02-09T08:36:16.150Z,22.10
2019-02-09T08:38:53.880Z,21.70
2019-02-09T08:41:27.775Z,22.00
2019-02-09T08:44:01.300Z,22.87
2019-02-09T08:46:35.722Z,26.25
2019-02-09T08:49:09.350Z,28.95
2019-02-09T08:51:44.272Z,35.35
2019-02-09T08:54:21.444Z,24.65
2019-02-09T08:56:55.794Z,22.55
2019-02-09T08:59:29.576Z,20.32
2019-02-09T09:02:06.334Z,20.97
2019-02-09T09:04:39.543Z,12.82
2019-02-09T09:07:13.523Z,14.87
2019-02-09T09:09:47.394Z,14.80
2019-02-09T09:12:20.830Z,14.55
2019-02-09T09:14:54.465Z,13.30
2019-02-09T09:17:29.036Z,13.00
2019-02-09T09:20:03.955Z,14.80
2019-02-09T09:22:37.508Z,13.65
2019-02-09T09:25:11.482Z,17.40
2019-02-09T09:27:46.499Z,17.20
2019-02-09T09:30:22.257Z,14.50
2019-02-09T09:32:56.041Z,12.10
2019-02-09T09:35:32.682Z,12.58
2019-02-09T09:38:07.210Z,15.45
2019-02-09T09:40:42.816Z,13.22
2019-02-09T09:43:19.224Z,14.73
2019-02-09T09:45:55.354Z,14.83
2019-02-09T09:48:29.656Z,14.03
2019-02-09T09:51:10.744Z,12.63
2019-02-09T09:53:45.106Z,15.20
2019-02-09T09:56:19.266Z,14.43
2019-02-09T09:58:53.923Z,16.15
2019-02-09T10:01:27.648Z,16.40
2019-02-09T10:04:04.130Z,17.32
2019-02-09T10:06:38.058Z,15.70
2019-02-09T10:09:12.355Z,15.72
2019-02-09T10:11:45.761Z,15.43
2019-02-09T10:14:20.269Z,14.18
2019-02-09T10:17:05.103Z,10.43
2019-02-09T10:19:43.192Z,9.58
2019-02-09T10:22:18.793Z,9.75
2019-02-09T10:24:52.921Z,11.28
2019-02-09T10:27:26.826Z,11.22
2019-02-09T10:30:01.099Z,12.25
2019-02-09T10:32:34.833Z,12.73
2019-02-09T10:35:09.864Z,11.40
2019-02-09T10:37:44.335Z,12.75
2019-02-09T10:40:25.139Z,11.00
2019-02-09T10:43:13.026Z,9.70
2019-02-09T10:45:58.658Z,10.68
2019-02-09T10:48:42.410Z,9.68
2019-02-09T10:51:22.084Z,14.75
2019-02-09T10:53:55.868Z,14.73
2019-02-09T10:56:29.569Z,12.23
2019-02-09T10:59:03.360Z,10.95
2019-02-09T11:01:42.134Z,15.63
2019-02-09T11:04:27.094Z,15.98
2019-02-09T11:07:13.605Z,14.35
2019-02-09T11:10:00.973Z,11.30
2019-02-09T11:12:46.888Z,9.18
2019-02-09T11:15:31.428Z,13.10
2019-02-09T11:18:05.417Z,11.90
2019-02-09T11:20:45.333Z,17.50
2019-02-09T11:23:19.380Z,22.90
2019-02-09T11:25:53.368Z,15.93
2019-02-09T11:28:27.642Z,12.05
2019-02-09T11:31:01.460Z,10.25
2019-02-09T11:33:37.378Z,9.33
2019-02-09T11:36:14.431Z,11.85
2019-02-09T11:39:00.577Z,11.43
2019-02-09T11:41:45.936Z,16.10
2019-02-09T11:44:24.340Z,15.10
2019-02-09T11:46:58.234Z,13.30
2019-02-09T11:49:33.219Z,14.53
2019-02-09T11:52:07.809Z,10.05
2019-02-09T11:54:46.016Z,11.38
2019-02-09T11:57:20.304Z,9.50
2019-02-09T11:59:54.462Z,9.90
2019-02-09T12:02:28.434Z,8.75
2019-02-09T12:05:02.332Z,12.10
2019-02-09T12:07:36.127Z,11.33
2019-02-09T12:10:12.184Z,8.63
2019-02-09T12:12:45.802Z,9.50
2019-02-09T12:15:25.558Z,11.10
2019-02-09T12:17:59.610Z,10.15
2019-02-09T12:20:33.568Z,10.30
2019-02-09T12:23:10.940Z,14.28
2019-02-09T12:25:44.772Z,9.18
2019-02-09T12:28:18.352Z,9.30
2019-02-09T12:30:52.220Z,9.78
2019-02-09T12:33:26.298Z,10.48
2019-02-09T12:36:02.833Z,12.10
2019-02-09T12:38:48.539Z,11.40
2019-02-09T12:41:33.551Z,8.90
2019-02-09T12:44:08.594Z,9.58
2019-02-09T12:46:42.520Z,9.03
2019-02-09T12:49:17.039Z,16.10
2019-02-09T12:51:51.198Z,20.25
2019-02-09T12:54:25.578Z,12.75
2019-02-09T12:56:59.298Z,13.68
2019-02-09T12:59:32.837Z,11.45
2019-02-09T13:02:07.332Z,14.83
2019-02-09T13:04:40.794Z,16.52
2019-02-09T13:07:14.360Z,9.65
2019-02-09T13:09:47.858Z,10.85
2019-02-09T13:12:21.217Z,11.80
2019-02-09T13:15:07.070Z,30.40
2019-02-09T13:17:53.420Z,9.33
2019-02-09T13:20:36.783Z,12.28
2019-02-09T13:23:11.470Z,9.68
2019-02-09T13:25:44.722Z,9.40
2019-02-09T13:30:51.035Z,22.43
2019-02-09T13:33:24.973Z,8.98
2019-02-09T13:35:58.999Z,32.70
2019-02-09T13:38:45.212Z,10.63
2019-02-09T13:41:31.445Z,15.55
2019-02-09T13:44:16.402Z,9.85
2019-02-09T13:46:50.114Z,12.07
2019-02-09T13:49:32.859Z,12.53
2019-02-09T13:52:06.494Z,11.45
2019-02-09T13:54:40.431Z,11.60
2019-02-09T13:57:14.884Z,13.70
2019-02-09T13:59:48.971Z,10.38
2019-02-09T14:02:23.721Z,10.03
2019-02-09T14:04:57.283Z,12.10
2019-02-09T14:07:30.794Z,11.65
2019-02-09T14:10:04.332Z,11.10
2019-02-09T14:12:38.374Z,17.15
2019-02-09T14:15:26.090Z,20.27
2019-02-09T14:18:02.406Z,18.75
2019-02-09T14:20:36.204Z,18.40
2019-02-09T14:23:10.066Z,14.38
2019-02-09T14:25:45.679Z,13.65
2019-02-09T14:28:21.086Z,12.60
2019-02-09T14:30:55.188Z,10.98
2019-02-09T14:33:29.619Z,12.03
2019-02-09T14:36:03.559Z,11.40
2019-02-09T14:38:37.580Z,12.85
2019-02-09T14:41:16.460Z,12.82
2019-02-09T14:43:51.610Z,15.05
2019-02-09T14:46:25.860Z,15.40
2019-02-09T14:49:02.223Z,19.02
2019-02-09T14:51:36.183Z,22.80
2019-02-09T14:54:21.866Z,17.57
2019-02-09T14:57:05.846Z,27.17
2019-02-09T14:59:40.920Z,17.15
2019-02-09T15:02:20.914Z,14.85
2019-02-09T15:04:55.223Z,16.93
2019-02-09T15:07:31.879Z,15.20
2019-02-09T15:10:06.015Z,26.27
2019-02-09T15:12:39.934Z,25.55
2019-02-09T15:15:23.056Z,22.35
2019-02-09T15:17:56.724Z,25.92
2019-02-09T15:20:33.066Z,31.02
2019-02-09T15:23:06.944Z,44.90
2019-02-09T15:25:40.424Z,48.90
2019-02-09T15:28:15.531Z,43.35
2019-02-09T15:30:49.208Z,35.70
2019-02-09T15:33:22.931Z,42.08
2019-02-09T15:35:58.684Z,46.28
2019-02-09T15:38:32.551Z,40.03
2019-02-09T15:41:15.121Z,36.33
2019-02-09T15:43:50.222Z,33.07
2019-02-09T15:46:24.984Z,26.65
2019-02-09T15:49:02.091Z,26.20
2019-02-09T15:51:36.791Z,27.85
2019-02-09T15:54:10.757Z,32.17
2019-02-09T15:56:45.800Z,32.42
2019-02-09T15:59:19.550Z,39.00
2019-02-09T16:01:54.564Z,31.05
2019-02-09T16:04:30.107Z,35.60
2019-02-09T16:07:04.254Z,31.23
2019-02-09T16:09:39.171Z,33.23
2019-02-09T16:12:15.844Z,42.67
2019-02-09T16:14:49.906Z,128.12
2019-02-09T16:17:24.461Z,80.30
2019-02-09T16:19:58.061Z,61.83
2019-02-09T16:22:33.032Z,60.58
2019-02-09T16:25:07.773Z,91.45
2019-02-09T16:27:41.740Z,63.73
2019-02-09T16:30:18.778Z,83.25
2019-02-09T16:32:52.558Z,160.43
2019-02-09T16:35:26.700Z,134.10
2019-02-09T16:38:01.007Z,96.47
2019-02-09T16:40:44.376Z,68.72
2019-02-09T16:43:28.667Z,117.75
2019-02-09T16:46:11.358Z,119.53
2019-02-09T16:48:45.918Z,110.92
2019-02-09T16:51:21.179Z,114.65
2019-02-09T16:53:55.733Z,122.72
2019-02-09T16:56:30.218Z,135.12
2019-02-09T16:59:04.414Z,139.70
2019-02-09T17:01:38.132Z,156.18
2019-02-09T17:04:12.762Z,144.60
2019-02-09T17:06:47.431Z,148.02
2019-02-09T17:09:21.219Z,115.47
2019-02-09T17:11:55.123Z,97.33
2019-02-09T17:14:28.930Z,94.87
2019-02-09T17:17:02.932Z,75.17
2019-02-09T17:19:37.414Z,72.78
2019-02-09T17:22:11.589Z,85.85
2019-02-09T17:24:45.285Z,76.15
2019-02-09T17:27:19.387Z,80.30
2019-02-09T17:29:53.854Z,79.35
2019-02-09T17:32:27.306Z,63.55
2019-02-09T17:35:01.741Z,67.17
2019-02-09T17:37:35.344Z,60.55
2019-02-09T17:40:20.970Z,63.42
2019-02-09T17:42:55.393Z,60.90
2019-02-09T17:45:43.005Z,62.65
2019-02-09T17:48:16.932Z,62.23
2019-02-09T17:50:51.773Z,67.90
2019-02-09T17:53:27.251Z,68.55
2019-02-09T17:56:01.754Z,74.82
2019-02-09T17:58:36.456Z,87.33
2019-02-09T18:01:15.398Z,82.92
2019-02-09T18:03:49.968Z,89.30
2019-02-09T18:06:23.575Z,98.97
2019-02-09T18:08:57.078Z,94.13
2019-02-09T18:11:30.506Z,95.03
2019-02-09T18:14:05.409Z,91.92
2019-02-09T18:16:39.190Z,90.07
2019-02-09T18:19:12.250Z,109.15
2019-02-09T18:21:45.610Z,77.65
2019-02-09T18:24:19.103Z,81.00
2019-02-09T18:26:53.086Z,48.15
2019-02-09T18:29:26.530Z,39.30
2019-02-09T18:32:14.208Z,40.88
2019-02-09T18:34:57.482Z,34.08
2019-02-09T18:37:31.996Z,34.40
2019-02-09T18:40:18.881Z,36.20
2019-02-09T18:42:55.134Z,42.95
2019-02-09T18:45:29.914Z,40.73
2019-02-09T18:48:03.742Z,38.13
2019-02-09T18:50:37.752Z,36.30
2019-02-09T18:53:12.818Z,44.42
2019-02-09T18:55:46.544Z,47.60
2019-02-09T18:58:20.552Z,42.80
2019-02-09T19:00:54.627Z,35.98
2019-02-09T19:03:29.112Z,34.00
2019-02-09T19:06:02.865Z,28.40
2019-02-09T19:08:45.202Z,24.27
2019-02-09T19:13:53.046Z,26.52
2019-02-09T19:16:27.185Z,31.90
2019-02-09T19:19:01.651Z,35.83
2019-02-09T19:21:35.554Z,42.05
2019-02-09T19:24:09.400Z,39.23
2019-02-09T19:26:42.591Z,38.90
2019-02-09T19:31:49.610Z,51.25
2019-02-09T19:34:24.202Z,55.28
2019-02-09T19:36:58.104Z,53.25
2019-02-09T19:39:32.885Z,58.50
2019-02-09T19:42:18.186Z,81.22
2019-02-09T19:45:04.046Z,86.02
2019-02-09T19:47:49.966Z,83.30
2019-02-09T19:50:35.911Z,89.80
2019-02-09T19:53:22.039Z,67.40
2019-02-09T19:56:04.209Z,65.95
2019-02-09T19:58:37.958Z,74.50
2019-02-09T20:01:11.494Z,79.67
2019-02-09T20:03:45.112Z,71.87
2019-02-09T20:06:18.740Z,67.53
2019-02-09T20:08:51.892Z,67.20
2019-02-09T20:13:57.290Z,42.65
2019-02-09T20:16:30.775Z,53.78
2019-02-09T20:19:05.585Z,54.90
2019-02-09T20:21:39.413Z,53.50
2019-02-09T20:24:12.914Z,56.50
2019-02-09T20:26:46.454Z,51.58
2019-02-09T20:29:20.936Z,54.55
2019-02-09T20:31:54.794Z,54.05
2019-02-09T20:34:30.606Z,51.80
2019-02-09T20:37:04.636Z,52.88
2019-02-09T20:39:38.979Z,55.60
2019-02-09T20:42:12.961Z,52.40
2019-02-09T20:44:47.303Z,50.40
2019-02-09T20:47:21.432Z,46.15
2019-02-09T20:49:55.398Z,40.35
2019-02-09T20:52:39.741Z,36.42
2019-02-09T20:55:13.748Z,30.88
2019-02-09T20:58:01.149Z,33.48
2019-02-09T21:00:46.035Z,32.63
2019-02-09T21:03:25.006Z,30.17
2019-02-09T21:05:58.877Z,35.48
2019-02-09T21:08:32.628Z,36.45
2019-02-09T21:11:08.215Z,39.95
2019-02-09T21:13:41.974Z,44.45
2019-02-09T21:16:15.624Z,44.30
2019-02-09T21:18:49.716Z,42.58
2019-02-09T21:21:23.283Z,38.48
2019-02-09T21:23:56.852Z,34.23
2019-02-09T21:26:30.432Z,34.05
2019-02-09T21:29:04.106Z,31.80
2019-02-09T21:31:38.200Z,35.73
2019-02-09T21:34:12.240Z,37.67
2019-02-09T21:36:45.659Z,32.03
2019-02-09T21:39:18.719Z,29.02
2019-02-09T21:41:52.780Z,26.73
2019-02-09T21:44:28.228Z,22.15
2019-02-09T21:47:02.441Z,23.47
2019-02-09T21:49:37.320Z,25.97
2019-02-09T21:52:11.152Z,28.30
2019-02-09T21:54:46.027Z,42.48
2019-02-09T21:57:19.978Z,39.88
2019-02-09T21:59:53.885Z,97.53
2019-02-09T22:02:42.617Z,68.60
2019-02-09T22:05:27.854Z,72.67
2019-02-09T22:08:19.028Z,64.17
2019-02-09T22:10:47.026Z,66.15
2019-02-09T22:13:33.798Z,55.90
2019-02-09T22:16:10.010Z,60.33
2019-02-09T22:18:43.680Z,46.95
2019-02-09T22:21:17.397Z,43.85
2019-02-09T22:23:53.712Z,38.95
2019-02-09T22:26:27.470Z,35.80
2019-02-09T22:29:01.428Z,35.43
2019-02-09T22:31:34.852Z,34.45
2019-02-09T22:34:07.901Z,32.67
2019-02-09T22:39:15.304Z,42.08
2019-02-09T22:41:49.454Z,46.53
2019-02-09T22:44:35.280Z,42.75
2019-02-09T22:47:11.758Z,37.95
2019-02-09T22:49:46.236Z,30.08
2019-02-09T22:52:19.260Z,30.30
2019-02-09T22:54:53.344Z,29.12
2019-02-09T22:57:26.776Z,44.98
2019-02-09T23:00:00.226Z,43.52
2019-02-09T23:02:33.584Z,37.25
2019-02-09T23:05:44.534Z,45.20
2019-02-09T23:08:18.368Z,54.20
2019-02-09T23:10:51.957Z,56.20
2019-02-09T23:13:25.644Z,52.13
2019-02-09T23:16:00.368Z,51.88
2019-02-09T23:18:33.942Z,46.77
2019-02-09T23:21:08.962Z,39.55
2019-02-09T23:23:42.336Z,33.98
2019-02-09T23:26:15.660Z,31.12
2019-02-09T23:29:01.406Z,33.42
2019-02-09T23:31:45.831Z,37.23
2019-02-09T23:34:30.656Z,37.33
2019-02-09T23:37:04.598Z,38.28
2019-02-09T23:39:47.726Z,39.13
2019-02-09T23:42:33.339Z,38.23
2019-02-09T23:45:06.556Z,37.03
2019-02-09T23:47:40.084Z,34.10
2019-02-09T23:50:16.646Z,33.50
2019-02-09T23:52:55.924Z,33.23
2019-02-09T23:55:29.362Z,33.00
2019-02-09T23:58:02.824Z,26.35
